»·PEaware :: N1SC KEWR-KJFK

N1SC :: KEWR-KJFK

FLIGHT INFORMATION

Flight Status: Arrived
Operator: Privately registered:
United States
More flights under this callsign
Pilot: Anonymous 10181 (10181)
Aircraft: PILATUS PC-12 EAGLE
(PC12)
More flights by this aircraft type
Origin: KEWR Newark Intl
United States
Destination: KJFK Kennedy Intl
United States
More flights between these airports :: More routes between these airports
Route: EWR4 BREZY V39 CMK V419 JUDDS NELIE MAD V1 DPK
File this flight plan on PilotEdge
Remarks: Happy Wednesday!
Altitude:
(Current/Filed)
11,000ft
Speed:
(Current/Filed)
200kts
Departed: 07-Dec-22 12:30 PM
Arrived: 07-Dec-22 01:28 PM
Distance/Time
Traveled:
17nm/0:57
Distance/Time
To Go:
Arrived

Flight Plot

Page will automatically refresh every two minutes.

Flight plan parsing failed; only flown route is shown


Map Options




Map Legend


Flown Route
Filed Route
Departure Airport
Arrival Airport
Navaid (VOR, NDB)
Fix

Horizontal Profiles

Position Reports

Time Latitude Longitude Heading Altitude Ground
Speed
07-Dec-22 12:12 40.704444 -74.165153 95 18ft 0kts
07-Dec-22 12:13 40.704444 -74.165153 95 18ft 0kts
07-Dec-22 12:14 40.704444 -74.165153 95 18ft 0kts
07-Dec-22 12:15 40.704444 -74.165153 95 18ft 0kts
07-Dec-22 12:16 40.704444 -74.165153 95 18ft 0kts
07-Dec-22 12:17 40.704444 -74.165153 95 18ft 0kts
07-Dec-22 12:18 40.704444 -74.165153 95 18ft 0kts
07-Dec-22 12:19 40.704444 -74.165153 95 18ft 0kts
07-Dec-22 12:20 40.703697 -74.166297 221 18ft 0kts
07-Dec-22 12:21 40.703600 -74.166513 247 18ft 8kts
07-Dec-22 12:22 40.703267 -74.171089 275 19ft 19kts
07-Dec-22 12:24 40.703548 -74.177282 275 21ft 15kts
07-Dec-22 12:25 40.703676 -74.179061 273 20ft 0kts
07-Dec-22 12:26 40.703704 -74.179575 273 21ft 0kts
07-Dec-22 12:27 40.703704 -74.179575 273 21ft 0kts
07-Dec-22 12:28 40.703704 -74.179575 273 21ft 0kts
07-Dec-22 12:29 40.703069 -74.180335 188 22ft 20kts
07-Dec-22 12:30 40.702426 -74.149471 69 934ft 109kts
07-Dec-22 12:31 40.722774 -74.112778 47 2984ft 136kts
07-Dec-22 12:32 40.763827 -74.074906 353 2970ft 208kts
07-Dec-22 12:33 40.822453 -74.088078 352 3578ft 213kts
07-Dec-22 12:34 40.881373 -74.096628 354 4572ft 213kts
07-Dec-22 12:35 40.940031 -74.104732 353 5562ft 214kts
07-Dec-22 12:36 40.999986 -74.113018 354 6570ft 215kts
07-Dec-22 12:37 41.059444 -74.121253 354 7562ft 217kts
07-Dec-22 12:38 41.120665 -74.129524 357 8572ft 218kts
07-Dec-22 12:39 41.168595 -74.087609 68 9534ft 220kts
07-Dec-22 12:40 41.186644 -74.007189 73 9993ft 239kts
07-Dec-22 12:41 41.207050 -73.916187 66 9988ft 291kts
07-Dec-22 12:42 41.231124 -73.806662 68 10012ft 318kts
07-Dec-22 12:43 41.255774 -73.693054 68 10009ft 321kts
07-Dec-22 12:44 41.282326 -73.579830 63 9994ft 317kts
07-Dec-22 12:44 41.287962 -73.483088 89 10030ft 302kts
07-Dec-22 12:46 41.290745 -73.358057 86 10579ft 282kts
07-Dec-22 12:47 41.294511 -73.254153 86 10975ft 288kts
07-Dec-22 12:48 41.298478 -73.144489 86 11012ft 301kts
07-Dec-22 12:48 41.301817 -73.051345 86 10999ft 303kts
07-Dec-22 12:49 41.280813 -72.951328 115 11002ft 269kts
07-Dec-22 12:51 41.242387 -72.848731 116 10946ft 265kts
07-Dec-22 12:51 41.204917 -72.786850 163 10484ft 269kts
07-Dec-22 12:52 41.154833 -72.839007 250 10906ft 252kts
07-Dec-22 12:53 41.113018 -72.914329 227 11002ft 260kts
07-Dec-22 12:55 41.036064 -72.914111 158 11005ft 260kts
07-Dec-22 12:55 40.979616 -72.884697 166 10991ft 260kts
07-Dec-22 12:56 40.924351 -72.937816 246 10030ft 276kts
07-Dec-22 12:57 40.892157 -73.028813 244 9043ft 266kts
07-Dec-22 12:58 40.860406 -73.115908 244 8042ft 261kts
07-Dec-22 12:59 40.828857 -73.202092 243 7039ft 258kts
07-Dec-22 13:00 40.797372 -73.286892 244 6129ft 253kts
07-Dec-22 13:01 40.770595 -73.364500 245 5985ft 201kts
07-Dec-22 13:02 40.762391 -73.432205 277 5972ft 187kts
07-Dec-22 13:03 40.770375 -73.497107 279 4371ft 181kts
07-Dec-22 13:04 40.779780 -73.568817 279 2827ft 225kts
07-Dec-22 13:05 40.750885 -73.636441 225 2487ft 199kts
07-Dec-22 13:06 40.716343 -73.681620 220 1513ft 169kts
07-Dec-22 13:07 40.681421 -73.717617 216 982ft 125kts
07-Dec-22 13:08 40.653739 -73.747196 216 403ft 109kts
07-Dec-22 13:09 40.624630 -73.771075 211 965ft 133kts
07-Dec-22 13:10 40.586871 -73.747508 135 2335ft 178kts
07-Dec-22 13:11 40.565105 -73.687443 60 2954ft 218kts
07-Dec-22 13:12 40.613214 -73.634686 36 3008ft 231kts
07-Dec-22 13:13 40.665407 -73.584177 36 3000ft 234kts
07-Dec-22 13:14 40.716417 -73.586351 299 2974ft 202kts
07-Dec-22 13:15 40.731299 -73.654277 251 2960ft 202kts
07-Dec-22 13:16 40.699036 -73.711645 216 1667ft 199kts
07-Dec-22 13:17 40.664522 -73.740361 210 677ft 129kts
07-Dec-22 13:18 40.642344 -73.773430 226 1886ft 119kts
07-Dec-22 13:19 40.611500 -73.768992 120 2514ft 136kts
07-Dec-22 13:20 40.622720 -73.723381 30 2938ft 156kts
07-Dec-22 13:21 40.663026 -73.695616 26 3006ft 166kts
07-Dec-22 13:22 40.697472 -73.695079 306 2600ft 115kts
07-Dec-22 13:23 40.700569 -73.727981 215 1621ft 99kts
07-Dec-22 13:24 40.673587 -73.745960 204 1289ft 107kts
07-Dec-22 13:25 40.649571 -73.764048 211 312ft 95kts
07-Dec-22 13:26 40.632282 -73.777582 209 20ft 47kts
07-Dec-22 13:27 40.631883 -73.783022 305 16ft 22kts
07-Dec-22 13:28 40.635422 -73.785381 301 18ft 26kts
07-Dec-22 13:29 40.640519 -73.796489 301 17ft 38kts

Navigation Log

Ident Type
Flight plan parsing failed, navigation log unavailable